Time;durP1;ratioP1;P1;durP2;ratioP2;P2;SDS_P1;SDS_P2;PMS_P1;PMS_P2;Temp;Humidity;BMP_temperature;BMP_pressure;BME280_temperature;BME280_humidity;BME280_pressure;Samples;Min_cycle;Max_cycle;Signal;HPM_P1;HPM_P2
2024/04/13 11:03:16;;;;;;;;;;;;;;;;;;6124977;21;19942;-88
2024/04/13 11:05:44;;;;;;;;;;;;;;;;;;5382872;26;19926;-88
2024/04/13 11:08:10;;;;;;;;;;;;;;;;;;5382959;26;19926;-86
2024/04/13 11:10:36;;;;;;;;;;;;;;;;;;5381436;26;19925;-88
2024/04/13 11:13:02;;;;;;;;;;;;;;;;;;5383239;26;19961;-91
2024/04/13 11:15:28;;;;;;;;;;;;;;;;;;5382138;26;19937;-90
2024/04/13 11:17:53;;;;;;;;;;;;;;;;;;5384769;26;20356;-89
2024/04/13 11:20:18;;;;;;;;;;;;;;;;;;5388962;26;19932;-91
2024/04/13 11:22:44;;;;;;;;;;;;;;;;;;5388160;26;20263;-88
2024/04/13 11:25:09;;;;;;;;;;;;;;;;;;5385345;26;19926;-91
2024/04/13 11:27:35;;;;;;;;;;;;;;;;;;5381340;26;19937;-88
2024/04/13 11:30:00;;;;;;;;;;;;;;;;;;5383030;26;20390;-88
2024/04/13 11:32:26;;;;;;;;;;;;;;;;;;5383118;26;19933;-88
2024/04/13 11:34:54;;;;;;;;;;;;;;;;;;5383223;26;20343;-87
2024/04/13 11:37:19;;;;;;;;;;;;;;;;;;5382529;26;20364;-89
2024/04/13 11:39:45;;;;;;;;;;;;;;;;;;5382828;26;19995;-90
2024/04/13 11:42:13;;;;;;;;;;;;;;;;;;5382568;26;19925;-90
2024/04/13 11:44:38;;;;;;;;;;;;;;;;;;5382503;26;19936;-88
2024/04/13 11:47:04;;;;;;;;;;;;;;;;;;5382963;26;19926;-90
2024/04/13 11:49:29;;;;;;;;;;;;;;;;;;5381383;26;19953;-90
2024/04/13 11:51:57;;;;;;;;;;;;;;;;;;5382083;26;19931;-90
2024/04/13 11:54:24;;;;;;;;;;;;;;;;;;5384263;26;19925;-90
2024/04/13 11:56:50;;;;;;;;;;;;;;;;;;5383955;26;19931;-90
2024/04/13 11:59:15;;;;;;;;;;;;;;;;;;5384007;26;19925;-90
2024/04/13 12:01:40;;;;;;;;;;;;;;;;;;5385764;26;19925;-90
2024/04/13 12:04:05;;;;;;;;;;;;;;;;;;5385841;26;19926;-91
2024/04/13 12:06:31;;;;;;;;;;;;;;;;;;5383954;26;19932;-91
2024/04/13 12:08:57;;;;;;;;;;;;;;;;;;5385795;26;19953;-90
2024/04/13 12:11:24;;;;;;;;;;;;;;;;;;5383680;26;19933;-87
2024/04/13 12:13:50;;;;;;;;;;;;;;;;;;5385703;26;20269;-87
2024/04/13 12:16:15;;;;;;;;;;;;;;;;;;5385774;26;19932;-88
2024/04/13 12:18:40;;;;;;;;;;;;;;;;;;5384028;26;19925;-87
2024/04/13 12:21:05;;;;;;;;;;;;;;;;;;5385875;26;19994;-88
2024/04/13 12:23:31;;;;;;;;;;;;;;;;;;5385673;26;19933;-87
2024/04/13 12:25:56;;;;;;;;;;;;;;;;;;5385491;26;20256;-87
2024/04/13 12:28:21;;;;;;;;;;;;;;;;;;5383640;26;19926;-87
2024/04/13 12:30:47;;;;;;;;;;;;;;;;;;5385176;26;19925;-90
2024/04/13 12:33:12;;;;;;;4.35;3.50;;;;;;;;;;5385285;26;19952;-87
2024/04/13 12:35:38;;;;;;;8.38;3.95;;;;;;;;;;5383288;26;20012;-88
2024/04/13 12:38:05;;;;;;;4.68;3.72;;;;;;;;;;5382928;26;20040;-88
2024/04/13 12:40:30;;;;;;;5.03;4.10;;;;;;;;;;5384785;26;19996;-88
2024/04/13 12:42:56;;;;;;;5.57;3.70;;;;;;;;;;5384850;26;19997;-88
2024/04/13 12:45:22;;;;;;;6.25;4.20;;;;;;;;;;5384111;26;20458;-88
2024/04/13 12:47:47;;;;;;;7.68;4.75;;;;;;;;;;5384429;26;20465;-88
2024/04/13 12:50:12;;;;;;;9.25;3.97;;;;;;;;;;5382518;26;20478;-87
2024/04/13 12:52:38;;;;;;;6.38;3.78;;;;;;;;;;5383200;26;20327;-91
2024/04/13 12:55:04;;;;;;;4.15;3.75;;;;;;;;;;5383616;26;19996;-91
2024/04/13 12:57:29;;;;;;;7.30;3.60;;;;;;;;;;5376753;26;20016;-92
2024/04/13 12:59:55;;;;;;;5.47;3.50;;;;;;;;;;5350157;26;20437;-92
2024/04/13 13:02:20;;;;;;;7.70;4.10;;;;;;;;;;5351084;26;20442;-90
2024/04/13 13:04:46;;;;;;;5.00;3.92;;;;;;;;;;5346685;26;20320;-90
2024/04/13 13:07:11;;;;;;;8.48;3.50;;;;;;;;;;5349228;26;19997;-92
2024/04/13 13:09:37;;;;;;;6.80;3.90;;;;;;;;;;5349395;26;20000;-93
2024/04/13 13:12:03;;;;;;;8.88;3.83;;;;;;;;;;5349612;26;20508;-92
2024/04/13 13:14:28;;;;;;;5.68;3.42;;;;;;;;;;5348958;26;19997;-90
2024/04/13 13:16:53;;;;;;;;;;;;;;;;;;5352303;26;20007;-89
2024/04/13 13:19:19;;;;;;;;;;;;;;;;;;5355333;26;19926;-90
2024/04/13 13:21:45;;;;;;;;;;;;;;;;;;5392812;26;19933;-90
2024/04/13 13:24:11;;;;;;;;;;;;;;;;;;5362313;26;19987;-90
2024/04/13 13:26:36;;;;;;;;;;;;;;;;;;5361268;26;19934;-93
2024/04/13 13:29:03;;;;;;;;;;;;;;;;;;5367297;26;19932;-92
2024/04/13 13:31:28;;;;;;;;;;;;;;;;;;5395634;26;19926;-92
2024/04/13 13:33:54;;;;;;;;;;;;;;;;;;5366773;26;19926;-92
2024/04/13 13:36:20;;;;;;;;;;;;;;;;;;5366375;26;19938;-92
2024/04/13 13:38:47;;;;;;;;;;;;;;;;;;5366547;26;19973;-92
2024/04/13 13:41:13;;;;;;;;;;;;;;;;;;5358162;26;19926;-93
2024/04/13 13:43:38;;;;;;;;;;;;;;;;;;5379213;26;19932;-93
2024/04/13 13:46:03;;;;;;;;;;;;;;;;;;5350131;26;19926;-93
2024/04/13 13:48:39;;;;;;;;;;;;;;;;;;5349909;26;20278;-93
2024/04/13 13:51:05;;;;;;;;;;;;;;;;;;5351418;26;19926;-93
2024/04/13 13:53:31;;;;;;;;;;;;;;;;;;5373963;26;19936;-92
2024/04/13 13:55:56;;;;;;;;;;;;;;;;;;5387043;26;19932;-96
2024/04/13 13:58:22;;;;;;;;;;;;;;;;;;5386070;26;20363;-95
2024/04/13 14:00:47;;;;;;;;;;;;;;;;;;5384442;26;19925;-96
2024/04/13 14:03:12;;;;;;;;;;;;;;;;;;5384843;26;20000;-96
2024/04/13 14:05:38;;;;;;;;;;;;;;;;;;5383106;26;19926;-94
2024/04/13 14:08:03;;;;;;;;;;;;;;;;;;5384500;26;19932;-94
2024/04/13 14:10:29;;;;;;;;;;;;;;;;;;5385128;26;19925;-93
2024/04/13 14:12:55;;;;;;;5.70;4.05;;;;;;;;;;5382954;26;19925;-95
2024/04/13 14:15:20;;;;;;;;;;;;;;;;;;5382392;26;20019;-95
2024/04/13 16:56:20;;;;;;;;;;;;;;;;;;5587288;21;19926;-90
2024/04/13 16:58:45;;;;;;;;;;;;;;;;;;5348308;26;19926;-90
2024/04/13 17:01:11;;;;;;;;;;;;;;;;;;5350225;26;19937;-90
2024/04/13 17:03:36;;;;;;;;;;;;;;;;;;5350031;26;20248;-88
2024/04/13 17:06:02;;;;;;;;;;;;;;;;;;5348166;26;19926;-90
2024/04/13 17:08:27;;;;;;;;;;;;;;;;;;5350089;26;19995;-89
2024/04/13 17:10:53;;;;;;;;;;;;;;;;;;5348929;26;19937;-92
2024/04/13 17:13:18;;;;;;;;;;;;;;;;;;5350562;26;19934;-91
2024/04/13 17:15:43;;;;;;;;;;;;;;;;;;5348674;26;20002;-90
2024/04/13 19:50:51;;;;;;;;;;;;;;;;;;5878277;21;20298;-89
2024/04/13 19:53:17;;;;;;;;;;;;;;;;;;5261023;27;19932;-86
2024/04/13 19:55:42;;;;;;;;;;;;;;;;;;5271136;27;20325;-89
2024/04/13 19:58:07;;;;;;;;;;;;;;;;;;5250935;27;19932;-89
2024/04/13 20:00:36;;;;;;;;;;;;;;;;;;5244067;27;19947;-89
2024/04/13 20:03:01;;;;;;;;;;;;;;;;;;5244973;27;19936;-87
2024/04/13 20:05:31;;;;;;;;;;;;;;;;;;5271717;27;20015;-89
2024/04/13 20:07:56;;;;;;;;;;;;;;;;;;5245892;27;20390;-89
2024/04/13 20:10:21;;;;;;;;;;;;;;;;;;5244663;27;19931;-90
2024/04/13 20:12:48;;;;;;;;;;;;;;;;;;5244317;27;19943;-89
2024/04/13 20:20:42;;;;;;;;;;;;;;;;;;5246596;27;20013;-88
2024/04/13 20:23:07;;;;;;;;;;;;;;;;;;5260579;27;19944;-88
2024/04/13 20:25:33;;;;;;;;;;;;;;;;;;5247429;27;19954;-89
2024/04/13 20:27:58;;;;;;;;;;;;;;;;;;5246023;27;20002;-88
2024/04/13 20:30:24;;;;;;;;;;;;;;;;;;5252115;27;19972;-89
2024/04/13 20:32:49;;;;;;;;;;;;;;;;;;5226779;27;19936;-88
2024/04/13 20:35:15;;;;;;;;;;;;;;;;;;5245835;27;19931;-88
2024/04/13 20:37:40;;;;;;;;;;;;;;;;;;5223273;27;20451;-88
2024/04/13 20:40:06;;;;;;;;;;;;;;;;;;5243960;27;20362;-89
2024/04/13 20:42:31;;;;;;;;;;;;;;;;;;5241339;27;19999;-89
2024/04/13 20:44:56;;;;;;;;;;;;;;;;;;5271303;27;20362;-89
2024/04/13 20:47:22;;;;;;;;;;;;;;;;;;5243185;27;19932;-88
2024/04/13 20:49:47;;;;;;;;;;;;;;;;;;5217109;27;19940;-89
2024/04/13 20:52:14;;;;;;;;;;;;;;;;;;5231797;27;19942;-89
2024/04/13 20:54:39;;;;;;;;;;;;;;;;;;5241839;27;19932;-89
2024/04/13 20:57:04;;;;;;;;;;;;;;;;;;5247863;27;19939;-88
2024/04/13 20:59:29;;;;;;;;;;;;;;;;;;5240375;27;20319;-88
2024/04/13 21:01:55;;;;;;;;;;;;;;;;;;5222792;27;20343;-90
2024/04/13 21:04:20;;;;;;;;;;;;;;;;;;5240551;27;19932;-90
2024/04/13 21:06:46;;;;;;;;;;;;;;;;;;5217672;27;19964;-90
2024/04/13 21:09:11;;;;;;;;;;;;;;;;;;5223566;27;19932;-89
2024/04/13 21:11:38;;;;;;;;;;;;;;;;;;5279754;27;20270;-89
2024/04/13 21:14:03;;;;;;;;;;;;;;;;;;5256132;27;20375;-89
2024/04/13 21:16:29;;;;;;;;;;;;;;;;;;5257381;27;19938;-89
2024/04/13 21:18:54;;;;;;;;;;;;;;;;;;5280733;27;19935;-89
2024/04/13 21:21:19;;;;;;;;;;;;;;;;;;5278671;27;20005;-89
2024/04/13 21:23:45;;;;;;;;;;;;;;;;;;5280629;27;20045;-89
2024/04/13 21:26:10;;;;;;;;;;;;;;;;;;5278519;27;19950;-89
2024/04/13 21:28:35;;;;;;;;;;;;;;;;;;5278996;27;19942;-89
2024/04/13 21:31:00;;;;;;;;;;;;;;;;;;5280380;27;19938;-89
2024/04/13 21:33:26;;;;;;;;;;;;;;;;;;5279051;27;19942;-89
2024/04/13 21:35:51;;;;;;;;;;;;;;;;;;5280389;27;19939;-89
2024/04/13 21:38:17;;;;;;;;;;;;;;;;;;5278606;27;20031;-90
2024/04/13 21:40:42;;;;;;;;;;;;;;;;;;5280512;27;20372;-89
2024/04/13 21:43:07;;;;;;;;;;;;;;;;;;5280522;27;19937;-90
2024/04/13 21:45:33;;;;;;;;;;;;;;;;;;5278448;27;20002;-89
2024/04/13 21:47:58;;;;;;;;;;;;;;;;;;5280187;27;19931;-90
2024/04/13 21:50:23;;;;;;;;;;;;;;;;;;5278645;27;19931;-89
2024/04/13 21:52:49;;;;;;;;;;;;;;;;;;5278528;27;19931;-89
2024/04/13 21:55:14;;;;;;;;;;;;;;;;;;5280502;27;19939;-90
2024/04/13 21:57:40;;;;;;;;;;;;;;;;;;5278603;27;19943;-89
2024/04/13 22:00:07;;;;;;;;;;;;;;;;;;5249809;27;20019;-89
2024/04/13 22:02:34;;;;;;;;;;;;;;;;;;5246678;27;19938;-89
2024/04/13 22:05:00;;;;;;;;;;;;;;;;;;5246745;27;19931;-89
2024/04/13 22:07:26;;;;;;;;;;;;;;;;;;5246539;27;20362;-89
2024/04/13 22:09:52;;;;;;;;;;;;;;;;;;5246845;27;20231;-89
2024/04/13 22:12:17;;;;;;;;;;;;;;;;;;5244479;27;19936;-89
2024/04/13 22:14:45;;;;;;;;;;;;;;;;;;5246655;27;19931;-89
2024/04/13 22:17:11;;;;;;;;;;;;;;;;;;5222983;27;19932;-89
2024/04/13 22:19:36;;;;;;;;;;;;;;;;;;5246643;27;19944;-89
2024/04/13 22:22:01;;;;;;;;;;;;;;;;;;5272566;27;19931;-90
2024/04/13 22:24:27;;;;;;;;;;;;;;;;;;5246049;27;20017;-90
2024/04/13 22:26:52;;;;;;;;;;;;;;;;;;5246404;27;19940;-89
2024/04/13 22:29:18;;;;;;;;;;;;;;;;;;5246024;27;20267;-89
2024/04/13 22:31:43;;;;;;;;;;;;;;;;;;5245800;27;19932;-89
2024/04/13 22:34:10;;;;;;;;;;;;;;;;;;5244182;27;19939;-89
2024/04/13 22:36:36;;;;;;;;;;;;;;;;;;5247527;27;19938;-89
2024/04/13 22:39:01;;;;;;;;;;;;;;;;;;5278226;27;19931;-90
